Time;durP1;ratioP1;P1;durP2;ratioP2;P2;SDS_P1;SDS_P2;PMS_P1;PMS_P2;Temp;Humidity;BMP_temperature;BMP_pressure;BME280_temperature;BME280_humidity;BME280_pressure;Samples;Min_cycle;Max_cycle;Signal;HPM_P1;HPM_P2
2022/09/27 00:04:34;;;;;;;14.77;11.82;;;;;;;14.61;99.85;96663.81;10296598;28;20041;-61
2022/09/27 00:09:33;;;;;;;12.88;9.68;;;;;;;14.13;100.00;96664.56;10304799;28;20048;-62
2022/09/27 00:14:32;;;;;;;16.63;11.85;;;;;;;14.06;100.00;96637.81;10304984;28;20481;-61
2022/09/27 00:19:31;;;;;;;;;;;;;;;14.41;100.00;96659.28;10304831;28;20405;-62
2022/09/27 00:24:30;;;;;;;13.32;10.55;;;;;;;14.15;100.00;96647.13;10304823;28;19917;-61
2022/09/27 00:29:29;;;;;;;16.90;12.50;;;;;;;13.64;100.00;96593.13;10304538;28;20057;-61
2022/09/27 00:34:28;;;;;;;;;;;;;;;14.13;100.00;96661.97;10303269;28;20228;-62
2022/09/27 00:39:27;;;;;;;14.20;11.40;;;;;;;14.13;100.00;96656.75;10303729;28;19913;-61
2022/09/27 00:44:32;;;;;;;;;;;;;;;14.11;100.00;96671.59;10304761;28;20065;-62
2022/09/27 00:49:37;;;;;;;19.90;12.88;;;;;;;13.70;100.00;96614.66;10303850;28;19957;-63
2022/09/27 00:54:39;;;;;;;19.67;14.32;;;;;;;14.20;100.00;96682.56;10319184;28;20080;-61
2022/09/27 00:59:49;;;;;;;17.58;13.20;;;;;;;14.32;100.00;96670.88;10303624;28;20066;-61
2022/09/27 01:04:48;;;;;;;17.35;13.68;;;;;;;14.43;100.00;96667.91;10302315;28;20077;-61
2022/09/27 01:09:48;;;;;;;18.88;14.02;;;;;;;14.43;100.00;96640.94;10303455;28;20512;-61
2022/09/27 01:15:08;;;;;;;20.27;14.48;;;;;;;14.54;100.00;96636.22;10301187;28;20087;-61
2022/09/27 01:20:40;;;;;;;22.92;15.57;;;;;;;14.36;100.00;96640.31;10297124;28;20073;-61
2022/09/27 01:25:45;;;;;;;21.25;15.60;;;;;;;14.44;100.00;96650.50;10311998;28;20349;-61
2022/09/27 01:30:47;;;;;;;21.45;16.95;;;;;;;14.44;100.00;96637.44;10296514;28;20069;-61
2022/09/27 01:36:03;;;;;;;24.15;17.33;;;;;;;14.36;100.00;96628.13;10296335;28;20068;-61
2022/09/27 01:41:14;;;;;;;25.00;17.48;;;;;;;14.36;100.00;96630.72;10296620;28;20092;-60
2022/09/27 01:46:26;;;;;;;23.50;17.75;;;;;;;14.30;100.00;96645.75;10296486;28;20073;-60
2022/09/27 01:51:44;;;;;;;23.60;18.73;;;;;;;14.20;100.00;96612.13;10295716;28;20069;-61
2022/09/27 01:56:51;;;;;;;27.13;19.40;;;;;;;14.33;100.00;96622.13;10295625;28;20455;-61
2022/09/27 02:01:51;;;;;;;26.80;19.05;;;;;;;14.36;100.00;96640.31;10295213;28;20119;-61
2022/09/27 02:06:58;;;;;;;23.48;18.50;;;;;;;14.27;100.00;96631.03;10295259;28;20073;-61
2022/09/27 02:12:04;;;;;;;28.80;19.50;;;;;;;14.19;100.00;96579.13;10295224;28;20058;-61
2022/09/27 02:17:22;;;;;;;29.30;19.92;;;;;;;14.34;100.00;96606.44;10294461;28;20084;-60
2022/09/27 02:22:42;;;;;;;29.25;19.23;;;;;;;14.28;100.00;96596.19;10309632;28;20073;-61
2022/09/27 02:27:54;;;;;;;27.48;20.23;;;;;;;14.08;100.00;96591.69;10293378;28;20074;-61
2022/09/27 02:32:53;;;;;;;27.25;19.88;;;;;;;13.94;100.00;96586.91;10294245;28;20057;-61
2022/09/27 02:37:53;;;;;;;31.80;21.15;;;;;;;13.92;100.00;96587.88;10288213;28;20080;-61
2022/09/27 02:42:52;;;;;;;27.33;18.45;;;;;;;13.65;100.00;96566.16;10292684;28;20076;-61
2022/09/27 02:47:55;;;;;;;;;;;;;;;13.71;100.00;96565.97;10292662;28;20058;-62
2022/09/27 02:53:14;;;;;;;29.42;19.73;;;;;;;13.74;100.00;96563.25;10291985;28;19963;-62
2022/09/27 02:58:13;;;;;;;33.42;22.05;;;;;;;13.84;100.00;96542.94;10291335;28;20096;-62
2022/09/27 03:03:19;;;;;;;35.25;24.45;;;;;;;13.86;100.00;96552.41;10295689;28;20096;-62
2022/09/27 03:08:19;;;;;;;29.30;20.98;;;;;;;13.76;100.00;96540.59;10294030;28;20627;-62
2022/09/27 03:13:18;;;;;;;33.65;20.98;;;;;;;13.60;100.00;96508.94;10295237;28;20111;-62
2022/09/27 03:18:17;;;;;;;29.50;20.25;;;;;;;13.73;100.00;96545.91;10296076;28;20038;-62
2022/09/27 03:23:16;;;;;;;31.73;21.05;;;;;;;13.72;100.00;96539.81;10294768;28;20053;-62
2022/09/27 03:28:15;;;;;;;30.20;20.52;;;;;;;13.71;100.00;96526.84;10295849;28;20060;-62
2022/09/27 03:33:14;;;;;;;29.77;20.50;;;;;;;13.59;100.00;96469.91;10296118;28;20081;-62
2022/09/27 03:38:13;;;;;;;27.65;19.50;;;;;;;13.80;100.00;96500.47;10295254;28;20095;-62
2022/09/27 03:43:12;;;;;;;29.33;19.73;;;;;;;13.67;100.00;96457.47;10295237;28;20030;-64
2022/09/27 03:48:11;;;;;;;30.50;20.80;;;;;;;13.90;100.00;96472.31;10295215;28;20033;-63
2022/09/27 03:53:10;;;;;;;28.42;21.23;;;;;;;13.80;100.00;96463.09;10295067;28;20029;-64
2022/09/27 03:58:09;;;;;;;32.85;20.48;;;;;;;13.77;100.00;96457.09;10295191;28;20038;-63
2022/09/27 04:03:08;;;;;;;34.50;24.55;;;;;;;13.72;100.00;96435.53;10291366;28;20066;-63
2022/09/27 04:08:07;;;;;;;;;;;;;;;13.80;100.00;96461.38;10291177;28;20085;-63
2022/09/27 04:13:06;;;;;;;28.27;19.52;;;;;;;13.73;100.00;96471.16;10288843;28;19917;-63
2022/09/27 04:18:05;;;;;;;30.38;22.45;;;;;;;13.60;100.00;96471.63;10288148;28;20520;-62
2022/09/27 04:23:05;;;;;;;31.63;21.05;;;;;;;13.46;100.00;96449.44;10290498;28;20069;-62
2022/09/27 04:28:05;;;;;;;31.52;22.23;;;;;;;13.48;100.00;96476.28;10283543;28;20176;-62
2022/09/27 04:33:04;;;;;;;35.20;22.55;;;;;;;13.42;100.00;96446.97;10287973;28;20509;-62
2022/09/27 04:38:03;;;;;;;34.50;24.02;;;;;;;13.45;100.00;96468.59;10289247;28;20072;-62
2022/09/27 04:43:03;;;;;;;35.53;21.17;;;;;;;13.40;100.00;96467.88;10288795;28;20080;-63
2022/09/27 04:48:03;;;;;;;29.90;22.05;;;;;;;13.39;100.00;96473.97;10286379;28;20057;-62
2022/09/27 04:53:03;;;;;;;32.60;21.45;;;;;;;13.21;100.00;96485.88;10306958;28;20073;-62
2022/09/27 04:58:02;;;;;;;33.97;23.60;;;;;;;13.15;100.00;96445.22;10309456;28;20066;-62
2022/09/27 05:03:01;;;;;;;31.20;22.02;;;;;;;13.46;100.00;96474.66;10309476;28;20135;-62
2022/09/27 05:08:00;;;;;;;29.50;20.85;;;;;;;13.59;100.00;96469.91;10295496;28;20054;-62
2022/09/27 05:12:59;;;;;;;;;;;;;;;13.70;100.00;96471.25;10296126;28;20077;-63
2022/09/27 05:17:58;;;;;;;34.15;18.95;;;;;;;13.84;100.00;96475.97;10294755;28;20008;-62
2022/09/27 05:22:57;;;;;;;51.38;21.45;;;;;;;13.95;100.00;96479.06;10294685;28;20036;-63
2022/09/27 05:27:57;;;;;;;;;;;;;;;14.09;100.00;96475.13;10292468;28;20524;-63
2022/09/27 05:32:56;;;;;;;30.33;20.33;;;;;;;14.19;100.00;96456.50;10286412;28;20077;-63
2022/09/27 05:37:59;;;;;;;26.73;19.35;;;;;;;14.18;100.00;96433.91;10295241;28;20371;-62
2022/09/27 05:42:58;;;;;;;29.90;21.88;;;;;;;14.43;100.00;96442.56;10293998;28;20077;-62
2022/09/27 05:47:58;;;;;;;43.85;27.73;;;;;;;14.59;100.00;96433.25;10294765;28;20072;-62
2022/09/27 05:52:57;;;;;;;32.05;22.25;;;;;;;14.70;100.00;96443.31;10295506;28;20065;-62
2022/09/27 05:57:57;;;;;;;;;;;;;;;14.76;100.00;96438.75;10297090;28;20119;-62
2022/09/27 06:02:59;;;;;;;38.58;26.98;;;;;;;14.79;100.00;96443.81;10311857;28;19948;-64
2022/09/27 06:08:03;;;;;;;36.65;24.50;;;;;;;14.85;100.00;96431.44;10296693;28;20082;-63
2022/09/27 06:13:05;;;;;;;33.10;23.48;;;;;;;14.84;100.00;96441.03;10295645;28;20881;-63
2022/09/27 06:18:08;;;;;;;35.10;27.15;;;;;;;14.81;100.00;96436.78;10295488;28;20100;-63
2022/09/27 06:23:13;;;;;;;42.67;28.70;;;;;;;14.82;100.00;96430.63;10293209;28;20065;-63
2022/09/27 06:28:13;;;;;;;34.83;25.20;;;;;;;14.82;100.00;96414.97;10295848;28;20513;-65
2022/09/27 06:33:14;;;;;;;26.70;18.10;;;;;;;14.80;100.00;96413.34;10294859;28;20088;-63
2022/09/27 06:38:15;;;;;;;32.55;21.98;;;;;;;14.97;100.00;96421.38;10309893;28;20512;-64
2022/09/27 06:43:16;;;;;;;25.88;18.40;;;;;;;15.00;100.00;96407.34;10310379;28;20073;-63
2022/09/27 06:48:16;;;;;;;23.08;15.68;;;;;;;15.13;100.00;96390.25;10294021;28;20062;-63
2022/09/27 06:53:16;;;;;;;21.40;16.63;;;;;;;15.20;100.00;96378.63;10293724;28;20066;-63
2022/09/27 07:03:36;;;;;;;13.18;8.88;;;;;;;15.63;100.00;96382.03;10282721;28;20458;-62
2022/09/27 07:08:35;;;;;;;10.43;7.43;;;;;;;15.72;100.00;96395.66;10279053;28;20088;-62
2022/09/27 07:13:39;;;;;;;10.70;8.20;;;;;;;16.00;100.00;96406.63;10288299;28;20554;-62
2022/09/27 07:18:39;;;;;;;8.60;6.95;;;;;;;16.07;100.00;96407.22;10289580;28;20644;-62
2022/09/27 07:23:38;;;;;;;11.60;7.97;;;;;;;16.13;100.00;96390.38;10289475;28;20109;-62
2022/09/27 07:28:40;;;;;;;10.25;7.63;;;;;;;16.21;100.00;96424.91;10291259;28;20482;-62
2022/09/27 07:33:39;;;;;;;19.75;14.98;;;;;;;16.28;100.00;96449.91;10291215;28;20072;-64
2022/09/27 07:38:38;;;;;;;;;;;;;;;16.39;100.00;96442.38;10289802;28;20081;-63
2022/09/27 07:43:37;;;;;;;15.13;9.60;;;;;;;15.97;100.00;96446.00;10289744;28;19910;-63
2022/09/27 07:48:36;;;;;;;;;;;;;;;15.97;100.00;96469.53;10287688;28;20518;-62
2022/09/27 07:53:34;;;;;;;12.85;9.07;;;;;;;15.87;100.00;96452.53;10261279;28;20290;-62
2022/09/27 07:58:33;;;;;;;;;;;;;;;16.25;100.00;96436.91;10248529;28;20031;-63
2022/09/27 08:03:33;;;;;;;13.83;10.30;;;;;;;16.84;100.00;96430.75;10272072;28;20664;-63
2022/09/27 08:08:33;;;;;;;11.95;9.70;;;;;;;17.26;100.00;96421.75;10292376;28;20080;-64
2022/09/27 08:13:32;;;;;;;13.27;10.07;;;;;;;17.59;100.00;96426.25;10292272;28;20070;-63
2022/09/27 08:18:31;;;;;;;9.20;7.78;;;;;;;17.56;97.84;96392.28;10292097;28;20070;-63
2022/09/27 08:23:30;;;;;;;10.05;6.97;;;;;;;17.63;95.76;96404.16;10292559;28;20026;-63
2022/09/27 08:28:30;;;;;;;12.63;8.90;;;;;;;17.38;91.25;96372.22;10298435;28;20165;-63
2022/09/27 08:33:29;;;;;;;9.43;7.43;;;;;;;17.49;91.24;96407.47;10297199;28;20072;-63
2022/09/27 08:38:28;;;;;;;9.30;7.15;;;;;;;17.47;91.60;96403.22;10296215;28;20077;-63
2022/09/27 08:43:51;;;;;;;7.30;6.35;;;;;;;17.55;91.20;96387.97;10291400;28;20041;-62
2022/09/27 08:48:58;;;;;;;8.27;6.70;;;;;;;17.44;91.64;96366.69;10296456;28;20550;-62
2022/09/27 08:54:11;;;;;;;9.60;6.93;;;;;;;17.71;90.93;96361.81;10295608;28;20061;-62
2022/09/27 08:59:20;;;;;;;15.35;6.93;;;;;;;18.08;92.24;96380.88;10293413;28;20080;-62
2022/09/27 09:04:31;;;;;;;9.52;5.65;;;;;;;18.67;92.68;96371.56;10293567;28;20065;-62
2022/09/27 09:10:02;;;;;;;8.13;6.10;;;;;;;19.23;90.96;96374.56;10296404;28;20089;-62
2022/09/27 09:15:12;;;;;;;8.05;5.32;;;;;;;19.79;90.24;96362.53;10310613;28;20537;-63
2022/09/27 09:20:32;;;;;;;5.63;4.60;;;;;;;20.14;89.06;96362.16;10267898;28;20065;-61
2022/09/27 09:25:34;;;;;;;6.03;4.50;;;;;;;20.21;86.17;96363.47;10286305;28;20061;-60
2022/09/27 09:31:20;;;;;;;9.15;6.07;;;;;;;20.15;79.62;96363.84;10294780;28;20054;-60
2022/09/27 09:36:39;;;;;;;9.80;6.40;;;;;;;20.24;79.77;96384.34;10276299;28;20077;-62
2022/09/27 09:41:42;;;;;;;10.10;7.10;;;;;;;20.32;79.83;96375.97;10275913;28;20111;-64
2022/09/27 09:46:45;;;;;;;10.48;6.65;;;;;;;20.13;77.87;96351.72;10295674;28;20116;-64
2022/09/27 09:51:50;;;;;;;7.53;5.13;;;;;;;20.43;76.62;96383.25;10287950;28;20061;-62
2022/09/27 09:56:58;;;;;;;9.88;5.53;;;;;;;20.92;76.74;96383.59;10286150;28;20072;-62
2022/09/27 10:02:13;;;;;;;6.57;4.73;;;;;;;21.28;77.14;96362.88;10280416;28;20512;-63
2022/09/27 10:07:22;;;;;;;6.63;5.53;;;;;;;21.72;72.24;96369.59;10263003;28;20077;-62
2022/09/27 10:12:21;;;;;;;7.70;4.72;;;;;;;21.82;71.13;96338.13;10253751;28;20061;-62
2022/09/27 10:17:24;;;;;;;5.00;4.50;;;;;;;22.43;67.18;96362.09;10251634;28;20078;-62
2022/09/27 10:22:31;;;;;;;8.73;4.95;;;;;;;22.61;65.69;96358.13;10268434;28;20080;-61
2022/09/27 10:27:44;;;;;;;4.28;3.65;;;;;;;22.37;64.79;96351.00;10279820;28;20060;-61
2022/09/27 10:32:43;;;;;;;6.82;4.53;;;;;;;22.27;66.46;96355.25;10293992;28;20092;-62
2022/09/27 10:37:44;;;;;;;5.30;4.30;;;;;;;21.52;69.90;96363.00;10293871;28;20439;-62
2022/09/27 10:42:43;;;;;;;6.28;4.82;;;;;;;21.52;70.68;96348.03;10292079;28;20525;-63
2022/09/27 10:47:42;;;;;;;6.18;4.72;;;;;;;21.57;70.18;96341.59;10292671;28;20058;-64
2022/09/27 10:52:42;;;;;;;6.40;5.05;;;;;;;21.37;71.06;96349.06;10293027;28;20727;-61
2022/09/27 10:57:48;;;;;;;5.60;4.70;;;;;;;21.23;70.04;96328.03;10291303;28;20524;-61
2022/09/27 11:03:15;;;;;;;6.10;4.68;;;;;;;21.54;69.05;96332.91;10291765;28;20677;-62
2022/09/27 11:08:30;;;;;;;4.47;3.90;;;;;;;21.88;65.69;96333.28;10293219;28;20852;-61
2022/09/27 11:13:31;;;;;;;5.90;4.35;;;;;;;21.96;65.68;96309.78;10292388;28;20081;-61
2022/09/27 11:18:39;;;;;;;5.07;4.22;;;;;;;21.77;66.03;96314.69;10290279;28;20062;-62
2022/09/27 11:23:49;;;;;;;6.23;4.50;;;;;;;22.13;64.89;96321.00;10284602;28;20151;-61
2022/09/27 11:29:06;;;;;;;6.40;4.70;;;;;;;22.15;63.36;96313.81;10287112;28;20057;-61
2022/09/27 11:34:18;;;;;;;6.78;4.57;;;;;;;22.29;63.60;96289.06;10286180;28;20509;-63
2022/09/27 11:39:29;;;;;;;10.55;5.28;;;;;;;22.92;62.79;96298.59;10287156;28;20501;-63
2022/09/27 11:44:41;;;;;;;9.40;5.10;;;;;;;23.20;60.46;96292.06;10287041;28;20061;-63
2022/09/27 11:49:53;;;;;;;6.80;4.57;;;;;;;23.15;58.60;96290.75;10304339;28;20528;-63
2022/09/27 11:55:16;;;;;;;6.93;4.88;;;;;;;22.95;58.82;96303.66;10288568;28;20065;-63
2022/09/27 12:00:24;;;;;;;8.38;5.28;;;;;;;22.70;60.41;96275.50;10289325;28;20065;-63
2022/09/27 12:05:56;;;;;;;7.38;5.40;;;;;;;22.59;61.82;96288.66;10301196;28;20124;-61
2022/09/27 12:11:25;;;;;;;7.07;5.18;;;;;;;22.38;63.60;96283.94;10283545;28;20148;-61
2022/09/27 12:16:26;;;;;;;7.22;5.10;;;;;;;22.55;62.48;96281.88;10288813;28;20068;-61
2022/09/27 12:21:28;;;;;;;6.28;5.22;;;;;;;22.72;61.91;96272.75;10287726;28;20077;-61
2022/09/27 12:26:37;;;;;;;7.15;5.55;;;;;;;23.04;61.31;96258.94;10288148;28;20073;-61
2022/09/27 12:31:53;;;;;;;7.85;5.15;;;;;;;23.06;60.52;96263.16;10286212;28;20105;-61
2022/09/27 12:37:03;;;;;;;7.63;5.25;;;;;;;22.83;61.70;96208.50;10284793;28;20054;-63
2022/09/27 12:42:36;;;;;;;6.60;5.40;;;;;;;23.15;60.55;96214.00;10288031;28;20065;-62
2022/09/27 12:48:08;;;;;;;9.02;5.65;;;;;;;23.45;60.21;96192.28;10277941;28;20069;-62
2022/09/27 12:53:18;;;;;;;6.97;5.00;;;;;;;23.79;58.09;96190.47;10287326;28;20509;-62
2022/09/27 12:58:39;;;;;;;10.85;4.95;;;;;;;23.80;56.50;96181.59;10302467;28;20081;-63
2022/09/27 13:04:15;;;;;;;5.22;4.72;;;;;;;23.71;55.83;96166.41;10287584;28;20072;-61
2022/09/27 13:09:14;;;;;;;6.75;4.43;;;;;;;23.78;55.48;96169.44;10284830;28;20085;-63
2022/09/27 13:14:22;;;;;;;4.80;4.13;;;;;;;23.76;54.80;96158.94;10293329;28;20028;-63
2022/09/27 13:19:42;;;;;;;7.68;6.43;;;;;;;23.86;54.05;96161.69;10296285;28;20061;-63
2022/09/27 13:24:45;;;;;;;6.70;4.53;;;;;;;23.36;55.15;96155.94;10293249;28;20069;-63
2022/09/27 13:29:44;;;;;;;6.22;4.63;;;;;;;23.13;56.09;96136.53;10288758;28;20065;-64
2022/09/27 13:34:52;;;;;;;8.35;4.70;;;;;;;22.97;56.89;96172.09;10294502;28;20105;-63
2022/09/27 13:40:15;;;;;;;13.93;5.77;;;;;;;22.00;62.96;96252.34;10293881;28;20100;-60
2022/09/27 13:45:22;;;;;;;0.20;0.20;;;;;;;14.48;100.00;96282.31;10295043;28;20062;-59
2022/09/27 13:50:23;;;;;;;0.20;0.20;;;;;;;13.53;100.00;96257.22;10295507;28;20672;-62
2022/09/27 13:55:43;;;;;;;0.22;0.22;;;;;;;13.27;100.00;96292.03;10294417;28;20564;-65
2022/09/27 14:00:57;;;;;;;0.38;0.38;;;;;;;13.37;100.00;96275.16;10295010;28;20062;-66
2022/09/27 14:06:03;;;;;;;0.60;0.52;;;;;;;13.32;100.00;96240.63;10290290;28;20551;-66
2022/09/27 14:11:11;;;;;;;0.38;0.38;;;;;;;13.35;100.00;96240.50;10307348;28;20073;-64
2022/09/27 14:16:14;;;;;;;0.93;0.68;;;;;;;13.76;100.00;96249.41;10292810;28;20508;-64
2022/09/27 14:21:22;;;;;;;1.40;1.30;;;;;;;13.90;100.00;96271.53;10306325;28;20077;-62
2022/09/27 14:26:26;;;;;;;0.47;0.47;;;;;;;14.06;100.00;96262.22;10291177;28;20151;-62
2022/09/27 14:31:25;;;;;;;0.98;0.70;;;;;;;14.30;100.00;96303.91;10307122;28;20069;-63
2022/09/27 14:41:49;;;;;;;1.15;0.90;;;;;;;14.18;100.00;96313.06;10261394;28;20132;-60
2022/09/27 14:47:07;;;;;;;0.95;0.95;;;;;;;13.80;100.00;96239.75;10286798;28;20114;-60
2022/09/27 14:52:16;;;;;;;2.78;1.45;;;;;;;14.14;100.00;96252.31;10291379;28;20096;-59
2022/09/27 14:57:16;;;;;;;0.43;0.43;;;;;;;14.23;100.00;96245.03;10291102;28;20076;-59
2022/09/27 15:02:22;;;;;;;2.42;1.67;;;;;;;14.33;100.00;96265.47;10290340;28;20120;-59
2022/09/27 15:07:22;;;;;;;3.58;1.50;;;;;;;14.34;100.00;96276.78;10290957;28;20089;-59
2022/09/27 15:12:24;;;;;;;3.55;1.48;;;;;;;14.30;100.00;96285.63;10305358;28;20508;-59
2022/09/27 15:17:24;;;;;;;2.92;1.02;;;;;;;14.32;100.00;96265.56;10284550;28;20129;-59
2022/09/27 15:22:43;;;;;;;0.82;0.80;;;;;;;14.48;100.00;96258.81;10289652;28;20068;-59
2022/09/27 15:28:05;;;;;;;2.33;1.07;;;;;;;14.52;100.00;96249.94;10288901;28;20076;-59
2022/09/27 15:33:17;;;;;;;1.08;1.05;;;;;;;14.58;100.00;96296.66;10289398;28;20528;-59
2022/09/27 15:38:25;;;;;;;1.13;1.08;;;;;;;14.67;100.00;96279.78;10286574;28;20121;-59
2022/09/27 15:43:32;;;;;;;1.20;0.88;;;;;;;14.71;100.00;96276.19;10287982;28;20076;-59
2022/09/27 15:48:36;;;;;;;2.03;1.30;;;;;;;14.65;100.00;96268.56;10289122;28;20076;-59
2022/09/27 15:53:35;;;;;;;0.70;0.70;;;;;;;14.80;100.00;96309.75;10289132;28;20465;-59
2022/09/27 15:58:34;;;;;;;;;;;;;;;14.85;100.00;96272.13;10289234;28;20471;-59
2022/09/27 16:03:33;;;;;;;1.73;1.63;;;;;;;14.78;100.00;96261.97;10289037;28;20404;-60
2022/09/27 16:08:32;;;;;;;;;;;;;;;14.96;100.00;96293.44;10286408;28;20082;-59
2022/09/27 16:13:31;;;;;;;1.85;0.70;;;;;;;14.78;100.00;96288.06;10289378;28;20300;-59
2022/09/27 16:18:31;;;;;;;0.82;0.82;;;;;;;14.42;100.00;96347.78;10303689;28;20053;-59
2022/09/27 16:23:30;;;;;;;0.93;0.93;;;;;;;14.33;100.00;96333.31;10288563;28;20069;-59
2022/09/27 16:28:29;;;;;;;;;;;;;;;14.49;100.00;96348.41;10289000;28;20029;-59
2022/09/27 16:33:31;;;;;;;0.73;0.73;;;;;;;14.55;100.00;96369.06;10288939;28;19961;-59
2022/09/27 16:57:28;;;;;;;1.10;1.00;;;;;;;14.57;100.00;96368.06;10405204;28;20824;-59
2022/09/27 17:02:27;;;;;;;;;;;;;;;14.39;100.00;96381.84;10404629;28;20134;-59
2022/09/27 17:07:26;;;;;;;0.10;0.10;;;;;;;14.37;100.00;96321.84;10406016;28;19905;-59
2022/09/27 17:12:25;;;;;;;1.65;0.60;;;;;;;14.11;100.00;96315.03;10404728;28;20082;-59
2022/09/27 17:17:24;;;;;;;;;;;;;;;14.11;100.00;96397.69;10405256;28;20029;-59
2022/09/27 17:22:23;;;;;;;0.68;0.68;;;;;;;13.89;100.00;96376.72;10405855;28;19912;-59
2022/09/27 17:27:26;;;;;;;0.32;0.32;;;;;;;13.85;100.00;96377.75;10404625;28;20029;-59
2022/09/27 17:32:26;;;;;;;0.77;0.77;;;;;;;13.95;100.00;96397.38;10406501;28;20075;-59
2022/09/27 17:37:25;;;;;;;0.20;0.20;;;;;;;13.98;100.00;96403.34;10404968;28;20064;-59
2022/09/27 17:42:24;;;;;;;;;;;;;;;14.00;100.00;96429.34;10405288;28;20041;-59
2022/09/27 17:54:23;;;;;;;0.20;0.20;;;;;;;14.00;100.00;96416.31;10528147;27;20410;-59
2022/09/27 17:59:22;;;;;;;0.30;0.30;;;;;;;13.99;100.00;96436.34;10531457;28;20137;-59
2022/09/27 18:04:21;;;;;;;0.98;0.88;;;;;;;13.81;100.00;96431.75;10530829;28;20055;-59
2022/09/27 18:09:20;;;;;;;0.43;0.43;;;;;;;13.86;100.00;96393.34;10530697;28;20023;-59
2022/09/27 18:14:21;;;;;;;1.10;1.10;;;;;;;13.87;100.00;96396.81;10531610;28;20556;-59
2022/09/27 18:19:20;;;;;;;0.30;0.30;;;;;;;13.97;100.00;96412.06;10527819;28;20059;-59
2022/09/27 18:24:18;;;;;;;;;;;;;;;13.93;100.00;96407.84;10531036;28;20085;-59
2022/09/27 18:29:17;;;;;;;0.28;0.28;;;;;;;13.87;100.00;96404.63;10527466;28;19907;-59
2022/09/27 18:34:17;;;;;;;0.20;0.20;;;;;;;13.86;100.00;96410.75;10528880;28;20059;-59
2022/09/27 18:39:17;;;;;;;0.30;0.30;;;;;;;13.91;100.00;96432.28;10529388;28;20059;-59
2022/09/27 18:44:17;;;;;;;0.50;0.50;;;;;;;13.81;100.00;96452.63;10529892;28;20500;-59
2022/09/27 18:49:16;;;;;;;0.93;0.93;;;;;;;13.62;100.00;96441.97;10526975;28;20067;-60
2022/09/27 18:54:17;;;;;;;;;;;;;;;13.62;100.00;96456.78;10529651;28;20043;-59
2022/09/27 18:59:16;;;;;;;0.43;0.43;;;;;;;13.52;100.00;96459.66;10528012;28;20254;-59
2022/09/27 19:04:23;;;;;;;0.52;0.52;;;;;;;13.49;100.00;96464.09;10507444;28;20059;-59
2022/09/27 19:09:25;;;;;;;2.97;1.30;;;;;;;13.43;100.00;96469.53;10500105;28;20500;-59
2022/09/27 19:14:24;;;;;;;1.63;0.95;;;;;;;13.36;100.00;96477.53;10500593;28;20500;-59
2022/09/27 19:19:23;;;;;;;;;;;;;;;13.33;100.00;96476.81;10500576;28;20066;-59
2022/09/27 19:24:21;;;;;;;0.50;0.50;;;;;;;13.21;100.00;96452.00;10500376;28;19994;-59
2022/09/27 19:29:21;;;;;;;1.95;1.20;;;;;;;13.28;100.00;96465.66;10499526;28;20035;-59
2022/09/27 19:34:19;;;;;;;0.80;0.80;;;;;;;13.28;100.00;96465.66;10499119;28;20067;-59
2022/09/27 19:39:18;;;;;;;0.47;0.47;;;;;;;13.22;100.00;96468.47;10498779;28;20020;-59
2022/09/27 19:44:17;;;;;;;1.08;0.98;;;;;;;13.18;100.00;96456.44;10499008;28;20027;-59
2022/09/27 19:49:17;;;;;;;0.30;0.30;;;;;;;13.14;100.00;96474.78;10497312;28;20503;-59
2022/09/27 19:54:16;;;;;;;1.13;0.55;;;;;;;12.89;100.00;96505.09;10499159;28;20480;-59
2022/09/27 19:59:15;;;;;;;0.93;0.90;;;;;;;12.61;100.00;96486.84;10497500;28;20836;-61
2022/09/27 20:04:14;;;;;;;1.02;0.95;;;;;;;12.61;100.00;96495.50;10498648;28;20110;-59
2022/09/27 20:09:13;;;;;;;0.80;0.63;;;;;;;12.71;100.00;96511.69;10497173;28;20059;-59
2022/09/27 20:14:12;;;;;;;;;;;;;;;12.70;100.00;96523.88;10495235;28;20064;-59
2022/09/27 20:19:11;;;;;;;0.50;0.50;;;;;;;12.62;100.00;96527.56;10495944;28;19955;-59
2022/09/27 20:24:10;;;;;;;1.58;1.48;;;;;;;12.52;100.00;96532.19;10497337;28;20132;-59
2022/09/27 20:29:09;;;;;;;;;;;;;;;12.50;100.00;96544.38;10496215;28;20080;-59
2022/09/27 20:34:11;;;;;;;1.23;1.13;;;;;;;12.48;100.00;96548.78;10498735;28;19959;-59
2022/09/27 20:39:13;;;;;;;1.55;0.90;;;;;;;12.50;100.00;96549.59;10518697;27;20066;-59
2022/09/27 20:44:14;;;;;;;0.80;0.75;;;;;;;12.42;100.00;96551.56;10540822;27;20055;-59
2022/09/27 20:49:17;;;;;;;0.70;0.65;;;;;;;12.43;100.00;96554.13;10540030;27;20530;-60
2022/09/27 20:54:16;;;;;;;0.50;0.50;;;;;;;12.24;100.00;96535.53;10539873;27;20097;-59
2022/09/27 20:59:20;;;;;;;1.92;1.45;;;;;;;12.36;100.00;96552.56;10539242;27;20065;-59
2022/09/27 21:04:23;;;;;;;2.97;1.05;;;;;;;12.27;100.00;96550.19;10538329;27;20055;-59
2022/09/27 21:09:22;;;;;;;1.65;1.23;;;;;;;12.15;100.00;96535.78;10539967;27;20061;-59
2022/09/27 21:14:21;;;;;;;0.80;0.80;;;;;;;12.14;100.00;96551.44;10538894;27;20107;-59
2022/09/27 21:19:20;;;;;;;1.10;0.68;;;;;;;12.17;100.00;96553.94;10538045;27;20031;-60
2022/09/27 21:24:18;;;;;;;0.40;0.40;;;;;;;12.16;100.00;96563.50;10537663;27;20114;-60
2022/09/27 21:29:17;;;;;;;0.20;0.20;;;;;;;12.14;100.00;96556.63;10538684;27;20443;-60
2022/09/27 21:34:16;;;;;;;1.20;0.68;;;;;;;12.15;100.00;96566.97;10537809;27;20126;-60
2022/09/27 21:39:15;;;;;;;0.40;0.40;;;;;;;12.00;100.00;96559.59;10537760;27;20110;-60
2022/09/27 21:44:14;;;;;;;0.60;0.60;;;;;;;12.00;100.00;96580.41;10538495;27;20023;-60
2022/09/27 21:49:13;;;;;;;0.40;0.40;;;;;;;11.97;100.00;96575.25;10538556;27;20599;-60
2022/09/27 21:54:14;;;;;;;0.40;0.40;;;;;;;11.89;100.00;96568.50;10537216;28;20590;-59
2022/09/27 21:59:14;;;;;;;0.50;0.50;;;;;;;11.78;100.00;96557.53;10534163;28;20055;-60
2022/09/27 22:04:13;;;;;;;0.55;0.40;;;;;;;11.77;100.00;96557.56;10534789;28;20496;-59
2022/09/27 22:09:16;;;;;;;1.08;1.08;;;;;;;11.69;100.00;96560.38;10535054;28;20051;-59
2022/09/27 22:14:18;;;;;;;1.20;1.10;;;;;;;11.57;100.00;96571.03;10535384;28;20074;-60
2022/09/27 22:19:18;;;;;;;0.80;0.77;;;;;;;11.53;100.00;96556.44;10537072;28;20062;-61
2022/09/27 22:24:17;;;;;;;0.55;0.55;;;;;;;11.47;100.00;96547.03;10538298;28;20471;-61
2022/09/27 22:29:16;;;;;;;0.85;0.85;;;;;;;11.41;100.00;96549.78;10538305;28;20504;-60
2022/09/27 22:34:17;;;;;;;;;;;;;;;11.45;100.00;96574.78;10538842;28;20054;-61
2022/09/27 22:39:16;;;;;;;0.55;0.55;;;;;;;11.30;100.00;96544.84;10543067;27;19949;-61
2022/09/27 22:44:16;;;;;;;1.08;0.95;;;;;;;11.18;100.00;96558.09;10544850;27;20035;-61
2022/09/27 22:49:14;;;;;;;0.90;0.57;;;;;;;11.15;100.00;96573.72;10546385;27;20476;-61
2022/09/27 22:54:13;;;;;;;0.85;0.80;;;;;;;11.20;100.00;96582.31;10545775;27;20482;-61
2022/09/27 22:59:13;;;;;;;0.90;0.90;;;;;;;11.07;100.00;96565.28;10545670;27;20411;-61
2022/09/27 23:04:12;;;;;;;1.30;0.90;;;;;;;11.01;100.00;96572.31;10545284;27;20069;-61
2022/09/27 23:09:11;;;;;;;1.05;0.82;;;;;;;10.94;100.00;96570.75;10544109;27;20548;-59
2022/09/27 23:14:10;;;;;;;0.40;0.40;;;;;;;10.88;100.00;96573.47;10545311;27;20473;-59
2022/09/27 23:19:10;;;;;;;0.70;0.70;;;;;;;10.90;100.00;96576.03;10545361;27;20063;-59
2022/09/27 23:24:10;;;;;;;0.45;0.45;;;;;;;10.91;100.00;96588.09;10544774;27;20062;-59
2022/09/27 23:29:10;;;;;;;0.68;0.68;;;;;;;10.75;100.00;96562.47;10544256;27;20054;-59
2022/09/27 23:34:11;;;;;;;;;;;;;;;10.80;100.00;96568.41;10543432;27;20063;-59
2022/09/27 23:39:09;;;;;;;0.20;0.20;;;;;;;10.79;100.00;96576.22;10544144;27;19955;-59
2022/09/27 23:44:08;;;;;;;0.50;0.50;;;;;;;10.77;100.00;96572.78;10544089;27;20122;-59
2022/09/27 23:49:07;;;;;;;0.88;0.60;;;;;;;10.83;100.00;96577.88;10542284;27;20067;-59
2022/09/27 23:54:07;;;;;;;0.50;0.50;;;;;;;10.72;100.00;96566.84;10543300;27;20039;-59
2022/09/27 23:59:05;;;;;;;;;;;;;;;10.69;100.00;96575.56;10544297;27;20062;-59
